Meteo Giornale » Osservazioni meteo Italia » Bari-Palese Macchie

ore: 07:20 - Osservazioni Meteo Bari-Palese Macchie
Lat. 41° 8' N Lon. 16° 47' E Alt. 34 metri s.l.m.

sereno Europe/Rome

24 °C

Sereno

Temp. 24 Ore

22 °C

34 °C

Sud/Sud-Ovest

11.1 Km/h

Dew point 11 °C

Umidità 43 %

Visibilità  10 Km

Il sole sorge alle ore 06:06

Il sole tramonta alle ore 19:45

Data e Ora Cielo e Fenomeni T °C DP °C Um. % Pres. hPa Vis. km Vento km/h
Oggi h: 07:20 sereno Sereno 24 11 43 1011 10 S/SO 11.1
Oggi h: 06:50 sereno Sereno 23 11 46 1011 10 S/SO 11.1
Oggi h: 06:20 sereno Sereno 22 11 49 1011 10 S/SO 9.3
Oggi h: 05:50 sereno Sereno 23 11 46 1011 10 S 9.3
Oggi h: 05:20 sereno Sereno 24 10 41 1011 10 S/SO 11.1
Oggi h: 04:50 sereno Sereno 24 10 41 1011 10 S/SO 11.1
Oggi h: 04:20 sereno Sereno 24 10 41 1011 10 SO 11.1
Oggi h: 03:50 sereno Sereno 24 11 43 1011 10 SO 11.1
Oggi h: 03:20 sereno Sereno 24 11 43 1011 10 SO 11.1
Oggi h: 02:50 sereno Sereno 25 12 44 1011 10 SO 11.1
Oggi h: 02:20 sereno Sereno 25 12 44 1011 10 S/SO 11.1
Oggi h: 01:50 sereno Sereno 25 12 44 1012 10 S/SO 7.4
Oggi h: 01:20 sereno Sereno 25 13 47 1012 10 N 3.7
Oggi h: 00:50 sereno Sereno 26 12 41 1012 10 N 5.5
Oggi h: 00:20 sereno Sereno 27 12 39 1012 10 SO 7.4
Ieri h: 23:50 sereno Sereno 28 11 34 1012 10 SO 7.4
Ieri h: 23:20 sereno Sereno 29 11 32 1012 10 SO 11.1
Ieri h: 22:50 sereno Sereno 29 11 32 1012 10 SO 9.3
Ieri h: 22:20 sereno Sereno 29 10 30 1012 10 SO 11.1
Ieri h: 21:50 sereno Sereno 29 10 30 1012 10 S/SO 9.3
Ieri h: 21:20 sereno Sereno 29 12 35 1012 10 S/SO 7.4
Ieri h: 20:50 sereno Sereno 30 12 33 1012 10 S 9.3
Ieri h: 20:20 sereno Sereno 31 12 31 1012 10 S 11.1
Ieri h: 19:50 sereno Sereno 32 12 29 1012 10 S 11.1
Ieri h: 19:20 sereno Sereno 33 12 27 1012 10 S/SE 7.4
Ieri h: 18:50 sereno Sereno 32 16 38 1012 10 E/SE 9.3
Ieri h: 18:20 sereno Sereno 32 14 33 1012 10 E 11.1
Ieri h: 17:50 sereno Sereno 33 13 29 1012 10 E 16.7
Ieri h: 17:20 sereno Sereno 33 12 27 1012 10 E 16.7
Ieri h: 16:50 sereno Sereno 33 14 31 1012 10 E 16.7
Ieri h: 16:20 sereno Sereno 32 16 38 1013 10 E 20.3
Ieri h: 15:50 sereno Sereno 32 15 35 1013 10 E 22.2
Ieri h: 15:20 sereno Sereno 32 15 35 1013 10 E 22.2
Ieri h: 14:50 sereno Sereno 32 16 38 1013 10 E 20.3
Ieri h: 14:20 sereno Sereno 31 18 45 1013 10 E 20.3
Ieri h: 13:50 sereno Sereno 31 17 43 1013 10 E 22.2
Ieri h: 13:20 sereno Sereno 31 16 40 1014 10 E 24
Ieri h: 12:50 sereno Sereno 32 17 40 1014 10 E 22.2
Ieri h: 12:20 sereno Sereno 31 17 43 1014 10 E 20.3
Ieri h: 11:50 sereno Sereno 31 16 40 1014 10 E 18.5
Ieri h: 11:20 sereno Sereno 31 17 43 1014 10 E/NE 13
Ieri h: 10:50 sereno Sereno 31 16 40 1014 10 E/NE 11.1
Ieri h: 10:20 sereno Sereno 30 15 40 1014 10 NE 13
Ieri h: 09:50 sereno Sereno 34 12 26 1014 10 N 5.5
Ieri h: 09:20 sereno Sereno 32 13 31 1014 10 SO 9.3
Ieri h: 08:50 sereno Sereno 30 12 33 1014 10 SO 9.3
Ieri h: 08:20 sereno Sereno 28 13 39 1014 10 SO 11.1
Ieri h: 07:50 sereno Sereno 26 12 41 1014 10 O/SO 9.3